createdAt,value
2022-07-29T00:02:09.394Z,14.14
2022-07-29T00:07:12.936Z,14.11
2022-07-29T00:12:17.137Z,14.09
2022-07-29T00:17:28.162Z,14.12
2022-07-29T00:22:31.109Z,14.06
2022-07-29T00:27:33.961Z,13.94
2022-07-29T00:32:36.875Z,13.96
2022-07-29T00:37:39.708Z,13.93
2022-07-29T00:42:50.511Z,13.91
2022-07-29T00:47:53.431Z,13.85
2022-07-29T00:52:57.859Z,13.76
2022-07-29T00:58:00.718Z,13.68
2022-07-29T01:03:04.605Z,13.64
2022-07-29T01:08:08.369Z,13.60
2022-07-29T01:13:11.385Z,13.56
2022-07-29T01:18:29.809Z,13.52
2022-07-29T01:24:07.130Z,13.50
2022-07-29T01:29:20.731Z,13.51
2022-07-29T01:35:20.116Z,13.54
2022-07-29T01:40:41.078Z,13.55
2022-07-29T01:45:51.001Z,13.61
2022-07-29T01:51:30.969Z,13.67
2022-07-29T01:56:37.194Z,13.70
2022-07-29T02:01:41.437Z,13.67
2022-07-29T02:06:44.614Z,13.69
2022-07-29T02:11:52.391Z,13.71
2022-07-29T02:16:55.854Z,13.69
2022-07-29T02:21:58.801Z,13.64
2022-07-29T02:27:02.068Z,13.60
2022-07-29T02:32:06.053Z,13.57
2022-07-29T02:37:11.091Z,13.57
2022-07-29T02:42:15.911Z,13.54
2022-07-29T02:47:42.385Z,13.52
2022-07-29T02:52:57.147Z,13.53
2022-07-29T02:58:29.494Z,13.54
2022-07-29T03:03:37.320Z,13.53
2022-07-29T03:08:40.406Z,13.44
2022-07-29T03:13:43.312Z,13.36
2022-07-29T03:18:46.239Z,13.34
2022-07-29T03:23:49.125Z,13.42
2022-07-29T03:28:51.967Z,13.50
2022-07-29T03:33:54.833Z,13.56
2022-07-29T03:38:57.740Z,13.55
2022-07-29T03:44:00.575Z,13.61
2022-07-29T03:49:04.502Z,13.68
2022-07-29T03:54:14.039Z,13.77
2022-07-29T03:59:17.224Z,13.81
2022-07-29T04:11:20.265Z,13.88
2022-07-29T04:16:23.354Z,13.95
2022-07-29T04:21:26.243Z,14.09
2022-07-29T04:26:29.036Z,14.21
2022-07-29T04:31:32.138Z,14.34
2022-07-29T04:36:35.204Z,14.50
2022-07-29T04:41:38.361Z,14.64
2022-07-29T04:46:41.355Z,14.81
2022-07-29T04:51:44.224Z,14.96
2022-07-29T04:56:48.279Z,15.11
2022-07-29T05:01:51.945Z,15.27
2022-07-29T05:06:55.036Z,15.42
2022-07-29T05:11:58.234Z,15.56
2022-07-29T05:17:01.080Z,15.70
2022-07-29T05:22:04.020Z,15.87
2022-07-29T05:27:06.923Z,16.08
2022-07-29T05:32:11.084Z,16.26
2022-07-29T05:37:17.143Z,16.39
2022-07-29T05:42:20.198Z,16.55
2022-07-29T05:47:23.983Z,16.73
2022-07-29T05:52:26.961Z,16.87
2022-07-29T05:57:29.765Z,16.98
2022-07-29T06:02:32.713Z,17.08
2022-07-29T06:07:35.545Z,17.19
2022-07-29T06:12:39.323Z,17.35
2022-07-29T06:17:58.900Z,17.47
2022-07-29T06:23:05.667Z,17.60
2022-07-29T06:28:08.471Z,17.72
2022-07-29T06:33:17.455Z,17.85
2022-07-29T06:38:31.621Z,18.02
2022-07-29T06:43:52.264Z,18.17
2022-07-29T06:48:57.761Z,18.33
2022-07-29T06:54:03.407Z,18.50
2022-07-29T06:59:08.186Z,18.62
2022-07-29T07:04:11.428Z,18.77
2022-07-29T07:09:14.297Z,18.91
2022-07-29T07:14:17.467Z,19.08
2022-07-29T07:19:20.602Z,19.20
2022-07-29T07:24:23.399Z,19.32
2022-07-29T07:29:26.379Z,19.44
2022-07-29T07:34:29.856Z,19.59
2022-07-29T07:39:33.006Z,19.73
2022-07-29T07:44:51.285Z,19.88
2022-07-29T07:49:58.895Z,20.07
2022-07-29T07:55:02.547Z,20.21
2022-07-29T08:00:06.974Z,20.34
2022-07-29T08:05:10.087Z,20.49
2022-07-29T08:10:37.141Z,20.61
2022-07-29T08:15:40.396Z,20.82
2022-07-29T08:20:43.321Z,20.97
2022-07-29T08:25:46.197Z,21.16
2022-07-29T08:30:53.240Z,21.36
2022-07-29T08:35:56.097Z,21.59
2022-07-29T08:41:01.188Z,21.83
2022-07-29T08:46:04.312Z,22.03
2022-07-29T08:51:07.192Z,22.29
2022-07-29T08:56:14.710Z,22.39
2022-07-29T09:01:42.910Z,22.62
2022-07-29T09:06:50.500Z,23.01
2022-07-29T09:11:54.682Z,23.28
2022-07-29T09:16:57.998Z,23.65
2022-07-29T09:22:06.386Z,23.90
2022-07-29T09:27:27.031Z,23.78
2022-07-29T09:32:30.631Z,23.91
2022-07-29T09:37:33.470Z,24.04
2022-07-29T09:42:36.762Z,24.53
2022-07-29T09:47:48.900Z,24.76
2022-07-29T09:52:54.403Z,24.88
2022-07-29T09:58:19.910Z,25.40
2022-07-29T10:03:23.952Z,26.12
2022-07-29T10:08:27.850Z,26.58
2022-07-29T10:13:30.673Z,26.78
2022-07-29T10:18:33.791Z,26.61
2022-07-29T10:23:46.749Z,26.18
2022-07-29T10:28:50.353Z,26.17
2022-07-29T10:34:04.051Z,26.48
2022-07-29T10:39:12.931Z,26.80
2022-07-29T10:44:23.853Z,27.07
2022-07-29T10:49:28.127Z,27.68
2022-07-29T10:54:36.612Z,28.03
2022-07-29T10:59:40.223Z,27.85
2022-07-29T11:04:47.030Z,28.16
2022-07-29T11:10:13.947Z,28.60
2022-07-29T11:15:25.014Z,28.60
2022-07-29T11:20:37.739Z,28.41
2022-07-29T11:25:42.799Z,29.02
2022-07-29T11:30:55.186Z,29.52
2022-07-29T11:36:30.270Z,29.72
2022-07-29T11:41:38.242Z,29.26
2022-07-29T11:46:47.637Z,29.41
2022-07-29T11:51:54.804Z,30.34
2022-07-29T11:56:59.705Z,31.88
2022-07-29T12:02:33.161Z,33.03
2022-07-29T12:07:35.452Z,31.76
2022-07-29T12:12:39.758Z,31.85
2022-07-29T12:17:43.005Z,32.06
2022-07-29T12:22:45.923Z,32.76
2022-07-29T12:27:58.519Z,34.90
2022-07-29T12:33:01.390Z,37.50
2022-07-29T12:38:05.351Z,37.18
2022-07-29T12:43:25.245Z,35.30
2022-07-29T12:48:39.743Z,33.24
2022-07-29T12:53:42.728Z,32.39
2022-07-29T12:58:49.392Z,31.98
2022-07-29T13:03:59.802Z,31.97
2022-07-29T13:09:26.641Z,33.66
2022-07-29T13:14:48.382Z,34.22
2022-07-29T13:19:53.953Z,35.95
2022-07-29T13:24:59.987Z,36.64
2022-07-29T13:30:05.809Z,37.39
2022-07-29T13:35:09.519Z,36.71
2022-07-29T13:40:12.951Z,36.22
2022-07-29T13:45:15.798Z,37.60
2022-07-29T13:50:18.731Z,39.23
2022-07-29T13:55:21.724Z,39.41
2022-07-29T14:00:24.891Z,39.78
2022-07-29T14:05:27.687Z,39.55
2022-07-29T14:10:30.477Z,39.14
2022-07-29T14:15:33.386Z,40.72
2022-07-29T14:20:42.405Z,41.09
2022-07-29T14:25:45.390Z,39.93
2022-07-29T14:30:48.821Z,39.27
2022-07-29T14:35:51.974Z,36.85
2022-07-29T14:40:55.299Z,35.99
2022-07-29T14:46:02.082Z,35.92
2022-07-29T14:51:06.314Z,34.96
2022-07-29T14:56:34.197Z,33.98
2022-07-29T15:01:32.085Z,32.43
2022-07-29T15:06:35.157Z,31.58
2022-07-29T15:11:38.437Z,30.65
2022-07-29T15:16:43.963Z,30.54
2022-07-29T15:21:49.715Z,30.33
2022-07-29T15:26:52.692Z,29.95
2022-07-29T15:31:56.687Z,29.57
2022-07-29T15:36:59.769Z,29.24
2022-07-29T15:42:04.072Z,29.00
2022-07-29T15:47:09.965Z,28.72
2022-07-29T15:52:12.763Z,28.28
2022-07-29T15:57:15.541Z,27.96
2022-07-29T16:02:20.486Z,27.60
2022-07-29T16:07:23.341Z,27.25
2022-07-29T16:12:28.772Z,26.98
2022-07-29T16:17:31.562Z,26.55
2022-07-29T16:22:35.066Z,26.09
2022-07-29T16:27:38.355Z,25.65
2022-07-29T16:32:41.363Z,25.22
2022-07-29T16:37:44.296Z,24.96
2022-07-29T16:42:47.865Z,24.81
2022-07-29T16:47:50.951Z,24.65
2022-07-29T16:52:54.188Z,24.47
2022-07-29T16:57:57.095Z,24.30
2022-07-29T17:03:00.132Z,24.20
2022-07-29T17:08:03.045Z,24.09
2022-07-29T17:13:05.965Z,23.98
2022-07-29T17:18:12.304Z,23.88
2022-07-29T17:23:15.909Z,23.75
2022-07-29T17:28:18.844Z,23.68
2022-07-29T17:33:21.744Z,23.64
2022-07-29T17:38:25.765Z,23.55
2022-07-29T17:43:28.615Z,23.43
2022-07-29T17:48:31.792Z,23.28
2022-07-29T17:53:37.671Z,23.13
2022-07-29T17:58:40.587Z,22.95
2022-07-29T18:03:44.066Z,22.76
2022-07-29T18:08:47.725Z,22.58
2022-07-29T18:13:50.677Z,22.38
2022-07-29T18:18:53.676Z,22.17
2022-07-29T18:23:56.462Z,22.00
2022-07-29T18:28:59.273Z,21.86
2022-07-29T18:34:02.061Z,21.66
2022-07-29T18:39:04.921Z,21.49
2022-07-29T18:44:10.073Z,21.38
2022-07-29T18:49:14.554Z,21.23
2022-07-29T18:54:17.639Z,21.07
2022-07-29T18:59:21.488Z,20.96
2022-07-29T19:04:24.288Z,20.80
2022-07-29T19:09:27.956Z,20.65
2022-07-29T19:14:30.923Z,20.53
2022-07-29T19:19:33.714Z,20.43
2022-07-29T19:24:36.594Z,20.32
2022-07-29T19:29:39.466Z,20.23
2022-07-29T19:35:02.519Z,20.13
2022-07-29T19:40:26.970Z,20.03
2022-07-29T19:45:30.503Z,19.93
2022-07-29T19:50:33.403Z,19.87
2022-07-29T19:55:36.248Z,19.81
2022-07-29T20:00:39.438Z,19.75
2022-07-29T20:05:43.505Z,19.67
2022-07-29T20:10:51.461Z,19.60
2022-07-29T20:15:54.447Z,19.55
2022-07-29T20:20:57.780Z,19.50
2022-07-29T20:26:06.051Z,19.45
2022-07-29T20:31:11.847Z,19.41
2022-07-29T20:36:15.284Z,19.38
2022-07-29T20:41:18.121Z,19.37
2022-07-29T20:46:21.397Z,19.34
2022-07-29T20:51:24.370Z,19.30
2022-07-29T20:56:27.304Z,19.28
2022-07-29T21:01:30.190Z,19.26
2022-07-29T21:06:34.753Z,19.22
2022-07-29T21:11:44.193Z,19.16
2022-07-29T21:16:48.079Z,19.09
2022-07-29T21:21:51.090Z,19.07
2022-07-29T21:27:20.770Z,19.06
2022-07-29T21:32:27.517Z,19.03
2022-07-29T21:37:33.175Z,19.00
2022-07-29T21:42:36.024Z,18.97
2022-07-29T21:47:39.371Z,18.94
2022-07-29T21:52:42.209Z,18.93
2022-07-29T21:57:45.416Z,18.93
2022-07-29T22:02:48.576Z,18.92
2022-07-29T22:07:55.729Z,18.90
2022-07-29T22:13:01.106Z,18.88
2022-07-29T22:18:04.290Z,18.82
2022-07-29T22:23:09.124Z,18.77
2022-07-29T22:28:12.016Z,18.71
2022-07-29T22:33:17.441Z,18.65
2022-07-29T22:38:21.109Z,18.56
2022-07-29T22:43:24.017Z,18.49
2022-07-29T22:48:27.226Z,18.43
2022-07-29T22:53:30.153Z,18.42
2022-07-29T22:58:33.222Z,18.37
2022-07-29T23:03:36.430Z,18.35
2022-07-29T23:08:39.372Z,18.34
2022-07-29T23:13:42.294Z,18.32
2022-07-29T23:18:46.051Z,18.31
2022-07-29T23:23:49.152Z,18.34
2022-07-29T23:28:51.998Z,18.33
2022-07-29T23:33:54.922Z,18.33
2022-07-29T23:38:57.788Z,18.34
2022-07-29T23:44:00.601Z,18.34
2022-07-29T23:49:03.481Z,18.30
2022-07-29T23:54:06.434Z,18.27
2022-07-29T23:59:09.320Z,18.27
